Terminal Aerodrome Forecast
Issued by NWS Wichita, KS

Home | Current Version | Previous Version | Graphics & Text | Print | Product List | Glossary On
Versions: 1 2 3 4 5 6 7 8 9 10 11 12 13 14 15 16 17 18 19 20 21 22
000
FTUS43 KICT 201741
TAFICT
TAF
KICT 201741Z 2018/2118 36015G21KT P6SM OVC019
     FM202000 01015G21KT P6SM BKN025
     FM210100 03006KT P6SM SCT020 BKN035
     FM210900 04004KT 5SM BR SCT020
     FM211400 06006KT P6SM SCT050=

USA.gov is the U.S. government's official web portal to all federal, state and local government web resources and services.